EFW91BM LGKR-EGKK
Flight info
| Callsign | EFW91BM |
|---|---|
| Flight time | N/A |
| Altitude | 36000 |
| Route | OLGAT2F OLGAT DCT ABADI DCT CRAYE DCT GISAM DCT IXONA DCT RESIA DCT ELMUR L613 HOC DCT LUL DCT RLP DCT ROTSI DCT KOTUN DCT NINAL DCT KESAX DCT KUNAV KUNAV1G |
| Aircraft | A320/M-SDE3FGIKRWXY/S |
Departure
| Time | 2026-04-30 12:19 |
|---|---|
| Airport | Corfu Ioannis Kapodistrias International Airport (LGKR) |
Arrival
| Time | N/A |
|---|---|
| Airport | London Gatwick Airport (EGKK) |
| Time | Latitude | Longitude | Altitude | Speed | Heading |
|---|---|---|---|---|---|
| 2026-04-30 11:37 | 39.60593 | 19.91381 | 9 ft | 0 kts | 82° |
| 2026-04-30 12:09 | 39.60592 | 19.91370 | 9 ft | 4 kts | 75° |
| 2026-04-30 12:09 | 39.60586 | 19.91337 | 9 ft | 4 kts | 85° |
| 2026-04-30 12:09 | 39.60587 | 19.91303 | 9 ft | 4 kts | 110° |
| 2026-04-30 12:09 | 39.60599 | 19.91278 | 11 ft | 1 kts | 139° |
| 2026-04-30 12:12 | 39.60598 | 19.91278 | 9 ft | 0 kts | 147° |
| 2026-04-30 12:13 | 39.60594 | 19.91271 | 9 ft | 1 kts | 220° |
| 2026-04-30 12:13 | 39.60595 | 19.91253 | 9 ft | 3 kts | 269° |
| 2026-04-30 12:13 | 39.60595 | 19.91218 | 9 ft | 5 kts | 267° |
| 2026-04-30 12:13 | 39.60583 | 19.91198 | 9 ft | 0 kts | 210° |
| 2026-04-30 12:15 | 39.60576 | 19.91193 | 8 ft | 3 kts | 210° |
| 2026-04-30 12:15 | 39.60544 | 19.91170 | 8 ft | 9 kts | 209° |
| 2026-04-30 12:16 | 39.60476 | 19.91141 | 8 ft | 11 kts | 181° |
| 2026-04-30 12:16 | 39.60392 | 19.91164 | 8 ft | 13 kts | 169° |
| 2026-04-30 12:16 | 39.60269 | 19.91192 | 10 ft | 23 kts | 172° |
| 2026-04-30 12:16 | 39.60094 | 19.91243 | 10 ft | 28 kts | 167° |
| 2026-04-30 12:17 | 39.59694 | 19.91343 | 8 ft | 31 kts | 168° |
| 2026-04-30 12:17 | 39.59475 | 19.91399 | 6 ft | 33 kts | 168° |
| 2026-04-30 12:17 | 39.59286 | 19.91450 | 6 ft | 23 kts | 169° |
| 2026-04-30 12:18 | 39.59190 | 19.91491 | 6 ft | 7 kts | 138° |
| 2026-04-30 12:18 | 39.59183 | 19.91482 | 5 ft | 1 kts | 284° |
| 2026-04-30 12:18 | 39.59220 | 19.91464 | 6 ft | 15 kts | 346° |
| 2026-04-30 12:18 | 39.59571 | 19.91373 | 7 ft | 86 kts | 349° |
| 2026-04-30 12:19 | 39.60346 | 19.91171 | 11 ft | 139 kts | 348° |
| 2026-04-30 12:19 | 39.61387 | 19.90929 | 334 ft | 153 kts | 347° |
| 2026-04-30 12:19 | 39.62430 | 19.90677 | 945 ft | 153 kts | 347° |
| 2026-04-30 12:19 | 39.63498 | 19.90412 | 1396 ft | 164 kts | 347° |
| 2026-04-30 12:20 | 39.64652 | 19.89955 | 1637 ft | 184 kts | 326° |
| 2026-04-30 12:20 | 39.65509 | 19.88644 | 1888 ft | 205 kts | 289° |
| 2026-04-30 12:20 | 39.65645 | 19.86754 | 2430 ft | 213 kts | 268° |
| 2026-04-30 12:20 | 39.65608 | 19.84830 | 3258 ft | 213 kts | 269° |
| 2026-04-30 12:21 | 39.65575 | 19.82900 | 4045 ft | 215 kts | 269° |
| 2026-04-30 12:21 | 39.65616 | 19.80923 | 4619 ft | 229 kts | 283° |
| 2026-04-30 12:21 | 39.66375 | 19.79016 | 5025 ft | 251 kts | 311° |
| 2026-04-30 12:21 | 39.67608 | 19.77361 | 5834 ft | 257 kts | 312° |
| 2026-04-30 12:22 | 39.68861 | 19.75692 | 6733 ft | 258 kts | 311° |
| 2026-04-30 12:22 | 39.70120 | 19.74013 | 7642 ft | 260 kts | 311° |
| 2026-04-30 12:22 | 39.71383 | 19.72323 | 8537 ft | 262 kts | 310° |
| 2026-04-30 12:22 | 39.72661 | 19.70608 | 9417 ft | 266 kts | 310° |
| 2026-04-30 12:23 | 39.73951 | 19.68873 | 10269 ft | 268 kts | 310° |
| 2026-04-30 12:23 | 39.75291 | 19.67062 | 10659 ft | 290 kts | 310° |
| 2026-04-30 12:23 | 39.76742 | 19.65100 | 10976 ft | 312 kts | 310° |
| 2026-04-30 12:23 | 39.78274 | 19.63029 | 11542 ft | 322 kts | 310° |
| 2026-04-30 12:24 | 39.79842 | 19.60913 | 12284 ft | 326 kts | 310° |
| 2026-04-30 12:24 | 39.81428 | 19.58770 | 13077 ft | 330 kts | 310° |
| 2026-04-30 12:24 | 39.83025 | 19.56610 | 13868 ft | 333 kts | 310° |
| 2026-04-30 12:24 | 39.84641 | 19.54426 | 14566 ft | 337 kts | 310° |
| 2026-04-30 12:25 | 39.86279 | 19.52213 | 15254 ft | 341 kts | 310° |
| 2026-04-30 12:25 | 39.87932 | 19.49975 | 15922 ft | 344 kts | 310° |
| 2026-04-30 12:25 | 39.89599 | 19.47717 | 16600 ft | 348 kts | 310° |
| 2026-04-30 12:25 | 39.91282 | 19.45438 | 17290 ft | 350 kts | 310° |
| 2026-04-30 12:26 | 39.92980 | 19.43132 | 17947 ft | 354 kts | 311° |
| 2026-04-30 12:26 | 39.94696 | 19.40798 | 18567 ft | 359 kts | 310° |
| 2026-04-30 12:26 | 39.96407 | 19.38463 | 19177 ft | 362 kts | 310° |
| 2026-04-30 12:26 | 39.98156 | 19.36075 | 19833 ft | 365 kts | 310° |
| 2026-04-30 12:27 | 39.99922 | 19.33668 | 20497 ft | 369 kts | 310° |
| 2026-04-30 12:27 | 40.01702 | 19.31243 | 21156 ft | 372 kts | 310° |
| 2026-04-30 12:27 | 40.03498 | 19.28793 | 21790 ft | 375 kts | 310° |
| 2026-04-30 12:27 | 40.05312 | 19.26315 | 22402 ft | 378 kts | 310° |
| 2026-04-30 12:28 | 40.07135 | 19.23821 | 23011 ft | 382 kts | 310° |
| 2026-04-30 12:28 | 40.08976 | 19.21297 | 23617 ft | 385 kts | 310° |
| 2026-04-30 12:28 | 40.10837 | 19.18746 | 24134 ft | 388 kts | 310° |
| 2026-04-30 12:28 | 40.12704 | 19.16186 | 24656 ft | 391 kts | 310° |
| 2026-04-30 12:29 | 40.14584 | 19.13605 | 25176 ft | 393 kts | 310° |
| 2026-04-30 12:29 | 40.16477 | 19.11008 | 25697 ft | 396 kts | 310° |
| 2026-04-30 12:29 | 40.18383 | 19.08395 | 26243 ft | 397 kts | 310° |
| 2026-04-30 12:29 | 40.20290 | 19.05773 | 26766 ft | 399 kts | 310° |
| 2026-04-30 12:30 | 40.22208 | 19.03136 | 27269 ft | 401 kts | 310° |
| 2026-04-30 12:30 | 40.24236 | 19.00609 | 27733 ft | 406 kts | 318° |
| 2026-04-30 12:30 | 40.26597 | 18.98523 | 28193 ft | 413 kts | 327° |
| 2026-04-30 12:30 | 40.29149 | 18.96747 | 28630 ft | 416 kts | 328° |
| 2026-04-30 12:31 | 40.31715 | 18.94968 | 29069 ft | 418 kts | 328° |
| 2026-04-30 12:31 | 40.34286 | 18.93180 | 29597 ft | 418 kts | 328° |
| 2026-04-30 12:31 | 40.36846 | 18.91395 | 30193 ft | 416 kts | 328° |
| 2026-04-30 12:31 | 40.39391 | 18.89614 | 30686 ft | 414 kts | 328° |
| 2026-04-30 12:32 | 40.41930 | 18.87833 | 31188 ft | 413 kts | 327° |
| 2026-04-30 12:32 | 40.44451 | 18.86064 | 31730 ft | 409 kts | 327° |
| 2026-04-30 12:32 | 40.46957 | 18.84308 | 32273 ft | 407 kts | 327° |
| 2026-04-30 12:32 | 40.49446 | 18.82561 | 32770 ft | 405 kts | 327° |
| 2026-04-30 12:33 | 40.51930 | 18.80819 | 33253 ft | 404 kts | 327° |
| 2026-04-30 12:33 | 40.54410 | 18.79080 | 33720 ft | 403 kts | 327° |
| 2026-04-30 12:33 | 40.56884 | 18.77344 | 34021 ft | 404 kts | 327° |
| 2026-04-30 12:33 | 40.59362 | 18.75603 | 34078 ft | 403 kts | 327° |
| 2026-04-30 12:34 | 40.64299 | 18.72122 | 34078 ft | 402 kts | 327° |
| 2026-04-30 12:34 | 40.69208 | 18.68654 | 34079 ft | 398 kts | 326° |
| 2026-04-30 12:35 | 40.74049 | 18.65232 | 34079 ft | 397 kts | 326° |
| 2026-04-30 12:35 | 40.78926 | 18.61822 | 34079 ft | 397 kts | 327° |
| 2026-04-30 12:36 | 40.83853 | 18.58498 | 34081 ft | 398 kts | 327° |
| 2026-04-30 12:36 | 40.88783 | 18.55189 | 34087 ft | 398 kts | 327° |
| 2026-04-30 12:37 | 40.93703 | 18.51856 | 34089 ft | 396 kts | 327° |
| 2026-04-30 12:37 | 40.98598 | 18.48517 | 34091 ft | 396 kts | 327° |
| 2026-04-30 12:38 | 41.03488 | 18.45170 | 34092 ft | 396 kts | 327° |
| 2026-04-30 12:38 | 41.08379 | 18.41819 | 34090 ft | 396 kts | 326° |
| 2026-04-30 12:39 | 41.13276 | 18.38465 | 34113 ft | 396 kts | 326° |
| 2026-04-30 12:39 | 41.18165 | 18.35117 | 34095 ft | 395 kts | 326° |
| 2026-04-30 12:40 | 41.23063 | 18.31750 | 34101 ft | 395 kts | 326° |
| 2026-04-30 12:40 | 41.27945 | 18.28381 | 34100 ft | 395 kts | 326° |
| 2026-04-30 12:41 | 41.32825 | 18.25006 | 34104 ft | 395 kts | 326° |
| 2026-04-30 12:41 | 41.37712 | 18.21627 | 34103 ft | 395 kts | 326° |
| 2026-04-30 12:42 | 41.42587 | 18.18241 | 34108 ft | 395 kts | 326° |
| 2026-04-30 12:42 | 41.47435 | 18.14872 | 34109 ft | 395 kts | 326° |
| 2026-04-30 12:43 | 41.52169 | 18.11228 | 34109 ft | 391 kts | 320° |
| 2026-04-30 12:43 | 41.56704 | 18.07207 | 34109 ft | 391 kts | 320° |
| 2026-04-30 12:44 | 41.60506 | 18.03846 | 34106 ft | 390 kts | 320° |
| 2026-04-30 12:44 | 41.64993 | 17.99877 | 34111 ft | 389 kts | 320° |
| 2026-04-30 12:45 | 41.69514 | 17.95875 | 34114 ft | 389 kts | 320° |
| 2026-04-30 12:45 | 41.74019 | 17.91850 | 34114 ft | 389 kts | 320° |
| 2026-04-30 12:46 | 41.78523 | 17.87819 | 34121 ft | 389 kts | 320° |
| 2026-04-30 12:46 | 41.83025 | 17.83791 | 34148 ft | 389 kts | 320° |
| 2026-04-30 12:47 | 41.87505 | 17.79780 | 34118 ft | 386 kts | 320° |
| 2026-04-30 12:47 | 41.91916 | 17.75692 | 34121 ft | 382 kts | 314° |
| 2026-04-30 12:48 | 41.95688 | 17.70749 | 34130 ft | 379 kts | 310° |
| 2026-04-30 12:48 | 41.99412 | 17.65751 | 34121 ft | 379 kts | 310° |
| 2026-04-30 12:49 | 42.03148 | 17.60744 | 34124 ft | 379 kts | 310° |
| 2026-04-30 12:49 | 42.06880 | 17.55743 | 34177 ft | 379 kts | 310° |
| 2026-04-30 12:50 | 42.10583 | 17.50762 | 34130 ft | 375 kts | 309° |
| 2026-04-30 12:50 | 42.14257 | 17.45799 | 34136 ft | 374 kts | 309° |
| 2026-04-30 12:51 | 42.17930 | 17.40830 | 34136 ft | 374 kts | 309° |
| 2026-04-30 12:51 | 42.21604 | 17.35861 | 34136 ft | 373 kts | 310° |
| 2026-04-30 12:52 | 42.25261 | 17.30897 | 34139 ft | 373 kts | 310° |
| 2026-04-30 12:52 | 42.28920 | 17.25930 | 34139 ft | 373 kts | 310° |
| 2026-04-30 12:53 | 42.32549 | 17.20989 | 34177 ft | 373 kts | 310° |
| 2026-04-30 12:53 | 42.36203 | 17.16006 | 34141 ft | 373 kts | 310° |
| 2026-04-30 12:54 | 42.39853 | 17.11013 | 34141 ft | 373 kts | 310° |
| 2026-04-30 12:54 | 42.43501 | 17.06024 | 34141 ft | 373 kts | 310° |
| 2026-04-30 12:55 | 42.47147 | 17.01020 | 34147 ft | 374 kts | 310° |
| 2026-04-30 12:55 | 42.50798 | 16.96007 | 34147 ft | 374 kts | 310° |
| 2026-04-30 12:56 | 42.54457 | 16.90983 | 34146 ft | 374 kts | 310° |
| 2026-04-30 12:56 | 42.58116 | 16.85950 | 34170 ft | 375 kts | 310° |
| 2026-04-30 12:57 | 42.61793 | 16.80878 | 34152 ft | 378 kts | 310° |
| 2026-04-30 12:57 | 42.65476 | 16.75770 | 34155 ft | 378 kts | 310° |
| 2026-04-30 12:58 | 42.69156 | 16.70656 | 34155 ft | 379 kts | 310° |
| 2026-04-30 12:58 | 42.72848 | 16.65530 | 34156 ft | 380 kts | 310° |
| 2026-04-30 12:59 | 42.76550 | 16.60388 | 34163 ft | 380 kts | 310° |
| 2026-04-30 12:59 | 42.80252 | 16.55239 | 34161 ft | 380 kts | 310° |
| 2026-04-30 13:00 | 42.83952 | 16.50074 | 34161 ft | 383 kts | 311° |
| 2026-04-30 13:00 | 42.87679 | 16.44854 | 34163 ft | 385 kts | 311° |
| 2026-04-30 13:01 | 42.91416 | 16.39619 | 34162 ft | 385 kts | 311° |
| 2026-04-30 13:01 | 42.95163 | 16.34378 | 34163 ft | 386 kts | 311° |
| 2026-04-30 13:02 | 42.98906 | 16.29126 | 34170 ft | 386 kts | 311° |
| 2026-04-30 13:02 | 43.02645 | 16.23858 | 34166 ft | 386 kts | 311° |
| 2026-04-30 13:03 | 43.06380 | 16.18578 | 34168 ft | 386 kts | 311° |
| 2026-04-30 13:03 | 43.10120 | 16.13279 | 34173 ft | 388 kts | 311° |
| 2026-04-30 13:04 | 43.13881 | 16.07956 | 34176 ft | 389 kts | 311° |
| 2026-04-30 13:04 | 43.17620 | 16.02654 | 34177 ft | 389 kts | 311° |
| 2026-04-30 13:05 | 43.21375 | 15.97320 | 34168 ft | 389 kts | 311° |
| 2026-04-30 13:06 | 43.26997 | 15.89304 | 34183 ft | 388 kts | 311° |
| 2026-04-30 13:06 | 43.30740 | 15.83955 | 34180 ft | 389 kts | 311° |
| 2026-04-30 13:07 | 43.34491 | 15.78588 | 34184 ft | 390 kts | 312° |
| 2026-04-30 13:07 | 43.38248 | 15.73203 | 34188 ft | 391 kts | 312° |
| 2026-04-30 13:08 | 43.42005 | 15.67803 | 34186 ft | 391 kts | 312° |
| 2026-04-30 13:08 | 43.45758 | 15.62400 | 34187 ft | 390 kts | 312° |
| 2026-04-30 13:09 | 43.49509 | 15.56991 | 34201 ft | 390 kts | 311° |
| 2026-04-30 13:09 | 43.53250 | 15.51576 | 34204 ft | 390 kts | 311° |
| 2026-04-30 13:10 | 43.56993 | 15.46149 | 34225 ft | 391 kts | 312° |
| 2026-04-30 13:10 | 43.60742 | 15.40705 | 34212 ft | 391 kts | 312° |
| 2026-04-30 13:11 | 43.64500 | 15.35254 | 34214 ft | 392 kts | 312° |
| 2026-04-30 13:11 | 43.68252 | 15.29796 | 34220 ft | 392 kts | 312° |
| 2026-04-30 13:12 | 43.71995 | 15.24331 | 34220 ft | 391 kts | 312° |
| 2026-04-30 13:12 | 43.75735 | 15.18857 | 34229 ft | 391 kts | 312° |
| 2026-04-30 13:13 | 43.81343 | 15.10646 | 34230 ft | 391 kts | 312° |
| 2026-04-30 13:14 | 43.86951 | 15.02418 | 34238 ft | 391 kts | 312° |
| 2026-04-30 13:14 | 43.92542 | 14.94166 | 34237 ft | 391 kts | 311° |
| 2026-04-30 13:15 | 43.98131 | 14.85912 | 34239 ft | 391 kts | 311° |
| 2026-04-30 13:16 | 44.01824 | 14.80436 | 34246 ft | 391 kts | 311° |
| 2026-04-30 13:16 | 44.05545 | 14.74900 | 34244 ft | 394 kts | 311° |
| 2026-04-30 13:17 | 44.11180 | 14.66520 | 34245 ft | 395 kts | 311° |
| 2026-04-30 13:18 | 44.16811 | 14.58114 | 34246 ft | 396 kts | 311° |
| 2026-04-30 13:18 | 44.22434 | 14.49682 | 34250 ft | 396 kts | 311° |
| 2026-04-30 13:19 | 44.26180 | 14.44055 | 34251 ft | 396 kts | 311° |
| 2026-04-30 13:19 | 44.29930 | 14.38421 | 34253 ft | 397 kts | 311° |
| 2026-04-30 13:20 | 44.33694 | 14.32749 | 34231 ft | 398 kts | 311° |
| 2026-04-30 13:20 | 44.37461 | 14.27059 | 34253 ft | 399 kts | 312° |
| 2026-04-30 13:21 | 44.41230 | 14.21356 | 34255 ft | 399 kts | 311° |
| 2026-04-30 13:22 | 44.46878 | 14.12774 | 34251 ft | 399 kts | 311° |
| 2026-04-30 13:22 | 44.52532 | 14.04176 | 34268 ft | 401 kts | 312° |
| 2026-04-30 13:23 | 44.58204 | 13.95515 | 34260 ft | 405 kts | 312° |
| 2026-04-30 13:24 | 44.65817 | 13.83852 | 34265 ft | 405 kts | 312° |
| 2026-04-30 13:25 | 44.72773 | 13.73139 | 34254 ft | 405 kts | 312° |
| 2026-04-30 13:26 | 44.82296 | 13.58393 | 34273 ft | 408 kts | 313° |
| 2026-04-30 13:28 | 44.90780 | 13.42338 | 34260 ft | 409 kts | 306° |
| 2026-04-30 13:28 | 44.95647 | 13.32418 | 34280 ft | 410 kts | 306° |
| 2026-04-30 13:29 | 45.02152 | 13.19173 | 34279 ft | 412 kts | 306° |
| 2026-04-30 13:31 | 45.10310 | 13.02422 | 34286 ft | 414 kts | 306° |
| 2026-04-30 13:32 | 45.18473 | 12.85590 | 34293 ft | 415 kts | 306° |
| 2026-04-30 13:33 | 45.24981 | 12.72067 | 34299 ft | 415 kts | 306° |
| 2026-04-30 13:34 | 45.29876 | 12.61876 | 34299 ft | 418 kts | 307° |
| 2026-04-30 13:35 | 45.36414 | 12.48207 | 34301 ft | 418 kts | 307° |
| 2026-04-30 13:36 | 45.42950 | 12.34464 | 34300 ft | 420 kts | 307° |
| 2026-04-30 13:36 | 45.47852 | 12.24129 | 34300 ft | 420 kts | 307° |
| 2026-04-30 13:37 | 45.52738 | 12.13806 | 34278 ft | 420 kts | 307° |
| 2026-04-30 13:38 | 45.57627 | 12.03371 | 34301 ft | 422 kts | 307° |
| 2026-04-30 13:39 | 45.64165 | 11.89421 | 34300 ft | 422 kts | 307° |
| 2026-04-30 13:40 | 45.69054 | 11.78936 | 34277 ft | 422 kts | 307° |
| 2026-04-30 13:40 | 45.72311 | 11.71923 | 34285 ft | 423 kts | 307° |
| 2026-04-30 13:41 | 45.75571 | 11.64904 | 34292 ft | 423 kts | 307° |
| 2026-04-30 13:41 | 45.78823 | 11.57881 | 34287 ft | 423 kts | 307° |
| 2026-04-30 13:42 | 45.82077 | 11.50832 | 34289 ft | 424 kts | 307° |
| 2026-04-30 13:42 | 45.86953 | 11.40226 | 34280 ft | 424 kts | 307° |
| 2026-04-30 13:43 | 45.90195 | 11.33147 | 34279 ft | 424 kts | 307° |
| 2026-04-30 13:43 | 45.93437 | 11.26060 | 34275 ft | 425 kts | 307° |
| 2026-04-30 13:44 | 45.96662 | 11.19004 | 34274 ft | 425 kts | 307° |
| 2026-04-30 13:44 | 45.99897 | 11.11890 | 34265 ft | 425 kts | 307° |
| 2026-04-30 13:45 | 46.04762 | 11.01170 | 34279 ft | 427 kts | 308° |
| 2026-04-30 13:46 | 46.08006 | 10.93993 | 34279 ft | 428 kts | 307° |
| 2026-04-30 13:46 | 46.11244 | 10.86801 | 34279 ft | 428 kts | 307° |
| 2026-04-30 13:47 | 46.14473 | 10.79597 | 34224 ft | 428 kts | 307° |
| 2026-04-30 13:47 | 46.17713 | 10.72394 | 34262 ft | 428 kts | 307° |
| 2026-04-30 13:48 | 46.20950 | 10.65176 | 34256 ft | 428 kts | 307° |
| 2026-04-30 13:48 | 46.24184 | 10.57930 | 34246 ft | 429 kts | 307° |
| 2026-04-30 13:49 | 46.27406 | 10.50687 | 34249 ft | 428 kts | 307° |
| 2026-04-30 13:49 | 46.30632 | 10.43436 | 34215 ft | 429 kts | 307° |
| 2026-04-30 13:50 | 46.33854 | 10.36161 | 34239 ft | 430 kts | 307° |
| 2026-04-30 13:50 | 46.38683 | 10.25212 | 34230 ft | 430 kts | 307° |
| 2026-04-30 13:51 | 46.41893 | 10.17890 | 34239 ft | 430 kts | 306° |
| 2026-04-30 13:51 | 46.45096 | 10.10577 | 34238 ft | 430 kts | 306° |
| 2026-04-30 13:52 | 46.48391 | 10.03425 | 34247 ft | 428 kts | 314° |
| 2026-04-30 13:52 | 46.52312 | 9.96955 | 34246 ft | 426 kts | 315° |
| 2026-04-30 13:53 | 46.56251 | 9.90500 | 34247 ft | 427 kts | 316° |
| 2026-04-30 13:53 | 46.60189 | 9.84014 | 34245 ft | 428 kts | 315° |
| 2026-04-30 13:54 | 46.62160 | 9.80750 | 34376 ft | 430 kts | 315° |
| 2026-04-30 13:54 | 46.64128 | 9.77484 | 34824 ft | 428 kts | 315° |
| 2026-04-30 13:54 | 46.66092 | 9.74217 | 35237 ft | 427 kts | 315° |
| 2026-04-30 13:54 | 46.68051 | 9.70960 | 35654 ft | 427 kts | 314° |
| 2026-04-30 13:55 | 46.70012 | 9.67710 | 36058 ft | 427 kts | 314° |
| 2026-04-30 13:55 | 46.71970 | 9.64466 | 36433 ft | 426 kts | 314° |
| 2026-04-30 13:55 | 46.73920 | 9.61226 | 36806 ft | 425 kts | 314° |
| 2026-04-30 13:55 | 46.75866 | 9.57982 | 37197 ft | 424 kts | 314° |
| 2026-04-30 13:56 | 46.77800 | 9.54742 | 37572 ft | 423 kts | 313° |
| 2026-04-30 13:56 | 46.79736 | 9.51499 | 37909 ft | 424 kts | 314° |
| 2026-04-30 13:56 | 46.81675 | 9.48252 | 38158 ft | 425 kts | 313° |
| 2026-04-30 13:56 | 46.83626 | 9.44987 | 38194 ft | 429 kts | 313° |
| 2026-04-30 13:57 | 46.87555 | 9.38414 | 38201 ft | 430 kts | 313° |
| 2026-04-30 13:57 | 46.91500 | 9.31797 | 38197 ft | 432 kts | 313° |
| 2026-04-30 13:58 | 46.97402 | 9.21831 | 38195 ft | 432 kts | 313° |
| 2026-04-30 13:59 | 47.01313 | 9.15206 | 38208 ft | 433 kts | 313° |
| 2026-04-30 13:59 | 47.05248 | 9.08523 | 38213 ft | 433 kts | 313° |
| 2026-04-30 14:00 | 47.09186 | 9.01824 | 38192 ft | 434 kts | 313° |
| 2026-04-30 14:00 | 47.14992 | 8.91578 | 38209 ft | 438 kts | 305° |
| 2026-04-30 14:01 | 47.17548 | 8.83425 | 38224 ft | 442 kts | 292° |
| 2026-04-30 14:01 | 47.19703 | 8.74959 | 38232 ft | 442 kts | 293° |
| 2026-04-30 14:02 | 47.21874 | 8.66493 | 38223 ft | 442 kts | 292° |
| 2026-04-30 14:02 | 47.24020 | 8.58023 | 38240 ft | 442 kts | 292° |
| 2026-04-30 14:03 | 47.26148 | 8.49539 | 38244 ft | 442 kts | 292° |
| 2026-04-30 14:03 | 47.28276 | 8.41061 | 38216 ft | 442 kts | 292° |
| 2026-04-30 14:04 | 47.30417 | 8.32563 | 38207 ft | 442 kts | 292° |
| 2026-04-30 14:04 | 47.32546 | 8.24048 | 38191 ft | 443 kts | 292° |
| 2026-04-30 14:05 | 47.34301 | 8.16956 | 38196 ft | 443 kts | 292° |
| 2026-04-30 14:05 | 47.36418 | 8.08398 | 38215 ft | 443 kts | 292° |
| 2026-04-30 14:06 | 47.39572 | 7.95581 | 38207 ft | 443 kts | 292° |
| 2026-04-30 14:07 | 47.42715 | 7.82757 | 38205 ft | 443 kts | 292° |
| 2026-04-30 14:08 | 47.45839 | 7.69905 | 38204 ft | 443 kts | 292° |
| 2026-04-30 14:08 | 47.48312 | 7.56717 | 38202 ft | 444 kts | 286° |
| 2026-04-30 14:09 | 47.49802 | 7.47845 | 38192 ft | 445 kts | 286° |
| 2026-04-30 14:10 | 47.52014 | 7.34558 | 38195 ft | 446 kts | 286° |
| 2026-04-30 14:10 | 47.53483 | 7.25637 | 38196 ft | 446 kts | 286° |
| 2026-04-30 14:11 | 47.54945 | 7.16708 | 38195 ft | 446 kts | 286° |
| 2026-04-30 14:11 | 47.56405 | 7.07769 | 38194 ft | 446 kts | 285° |
| 2026-04-30 14:12 | 47.57855 | 6.98834 | 38196 ft | 446 kts | 286° |
| 2026-04-30 14:12 | 47.59299 | 6.89894 | 38198 ft | 446 kts | 285° |
| 2026-04-30 14:13 | 47.60732 | 6.80938 | 38200 ft | 447 kts | 285° |
| 2026-04-30 14:13 | 47.62169 | 6.71955 | 38189 ft | 448 kts | 285° |
| 2026-04-30 14:14 | 47.63600 | 6.62961 | 38178 ft | 449 kts | 284° |
| 2026-04-30 14:14 | 47.65028 | 6.53952 | 38168 ft | 449 kts | 284° |
| 2026-04-30 14:15 | 47.66444 | 6.44934 | 38168 ft | 449 kts | 284° |
| 2026-04-30 14:15 | 47.67849 | 6.35910 | 38163 ft | 449 kts | 284° |
| 2026-04-30 14:16 | 47.69298 | 6.26892 | 38164 ft | 449 kts | 286° |
| 2026-04-30 14:16 | 47.71101 | 6.18099 | 38178 ft | 447 kts | 290° |
| 2026-04-30 14:17 | 47.73105 | 6.09289 | 38184 ft | 447 kts | 290° |
| 2026-04-30 14:17 | 47.75021 | 6.00552 | 38182 ft | 448 kts | 289° |
| 2026-04-30 14:18 | 47.76873 | 5.91721 | 38173 ft | 447 kts | 288° |
| 2026-04-30 14:18 | 47.79618 | 5.78464 | 38171 ft | 447 kts | 289° |
| 2026-04-30 14:19 | 47.82374 | 5.65205 | 38165 ft | 447 kts | 289° |
| 2026-04-30 14:20 | 47.84197 | 5.56354 | 38170 ft | 447 kts | 288° |
| 2026-04-30 14:20 | 47.86930 | 5.43064 | 38147 ft | 448 kts | 289° |
| 2026-04-30 14:21 | 47.88749 | 5.34164 | 38146 ft | 450 kts | 288° |
| 2026-04-30 14:21 | 47.90990 | 5.25500 | 38167 ft | 442 kts | 301° |
| 2026-04-30 14:22 | 47.92650 | 5.21737 | 38164 ft | 428 kts | 310° |
| 2026-04-30 14:22 | 47.96497 | 5.15312 | 38169 ft | 405 kts | 314° |
| 2026-04-30 14:22 | 47.98384 | 5.12212 | 38168 ft | 402 kts | 315° |
| 2026-04-30 14:23 | 48.05901 | 4.99768 | 38155 ft | 405 kts | 314° |
| 2026-04-30 14:24 | 48.11570 | 4.90353 | 38155 ft | 405 kts | 314° |
| 2026-04-30 14:25 | 48.19087 | 4.77791 | 38161 ft | 406 kts | 313° |
| 2026-04-30 14:26 | 48.24750 | 4.68326 | 38166 ft | 406 kts | 313° |
| 2026-04-30 14:27 | 48.30409 | 4.58835 | 38166 ft | 407 kts | 313° |
| 2026-04-30 14:27 | 48.34177 | 4.52488 | 38162 ft | 407 kts | 314° |
| 2026-04-30 14:28 | 48.39844 | 4.42928 | 38159 ft | 409 kts | 313° |
| 2026-04-30 14:28 | 48.43619 | 4.36524 | 38156 ft | 409 kts | 313° |
| 2026-04-30 14:29 | 48.50549 | 4.24738 | 38134 ft | 411 kts | 313° |
| 2026-04-30 14:31 | 48.60663 | 4.07439 | 38182 ft | 412 kts | 313° |
| 2026-04-30 14:31 | 48.66340 | 3.97681 | 38195 ft | 412 kts | 313° |
| 2026-04-30 14:32 | 48.72000 | 3.87906 | 38201 ft | 411 kts | 312° |
| 2026-04-30 14:33 | 48.75925 | 3.81637 | 38187 ft | 410 kts | 317° |
| 2026-04-30 14:33 | 48.82124 | 3.72685 | 38166 ft | 410 kts | 319° |
| 2026-04-30 14:34 | 48.86234 | 3.66661 | 38161 ft | 412 kts | 317° |
| 2026-04-30 14:34 | 48.90318 | 3.60542 | 38178 ft | 412 kts | 317° |
| 2026-04-30 14:35 | 48.96416 | 3.51342 | 38183 ft | 411 kts | 316° |
| 2026-04-30 14:36 | 49.00484 | 3.45224 | 38175 ft | 411 kts | 317° |
| 2026-04-30 14:36 | 49.04534 | 3.39120 | 38177 ft | 411 kts | 317° |
| 2026-04-30 14:37 | 49.08598 | 3.32979 | 38180 ft | 411 kts | 317° |
| 2026-04-30 14:37 | 49.12664 | 3.26812 | 38157 ft | 412 kts | 317° |
| 2026-04-30 14:38 | 49.16727 | 3.20629 | 38178 ft | 412 kts | 317° |
| 2026-04-30 14:38 | 49.20787 | 3.14441 | 38166 ft | 412 kts | 317° |
| 2026-04-30 14:39 | 49.24842 | 3.08250 | 38182 ft | 411 kts | 316° |
| 2026-04-30 14:39 | 49.28881 | 3.02062 | 38174 ft | 411 kts | 316° |
| 2026-04-30 14:40 | 49.34949 | 2.92723 | 38165 ft | 412 kts | 317° |
| 2026-04-30 14:40 | 49.39005 | 2.86493 | 38168 ft | 413 kts | 316° |
| 2026-04-30 14:41 | 49.43068 | 2.80225 | 38174 ft | 413 kts | 316° |
| 2026-04-30 14:41 | 49.47096 | 2.73991 | 38178 ft | 413 kts | 316° |
| 2026-04-30 14:42 | 49.51139 | 2.67707 | 38180 ft | 413 kts | 315° |
| 2026-04-30 14:42 | 49.55179 | 2.61420 | 38187 ft | 412 kts | 316° |
| 2026-04-30 14:43 | 49.59216 | 2.55108 | 38178 ft | 413 kts | 315° |
| 2026-04-30 14:43 | 49.63151 | 2.48632 | 38170 ft | 414 kts | 312° |
| 2026-04-30 14:44 | 49.66866 | 2.41808 | 38153 ft | 416 kts | 310° |
| 2026-04-30 14:44 | 49.70551 | 2.34885 | 38167 ft | 417 kts | 310° |
| 2026-04-30 14:45 | 49.74262 | 2.28045 | 38171 ft | 417 kts | 311° |
| 2026-04-30 14:45 | 49.78004 | 2.21218 | 38186 ft | 416 kts | 311° |
| 2026-04-30 14:46 | 49.81742 | 2.14386 | 38162 ft | 416 kts | 311° |
| 2026-04-30 14:46 | 49.84875 | 2.08643 | 38172 ft | 416 kts | 310° |
| 2026-04-30 14:47 | 49.88593 | 2.01798 | 38186 ft | 415 kts | 310° |
| 2026-04-30 14:47 | 49.92274 | 1.94994 | 38176 ft | 414 kts | 310° |
| 2026-04-30 14:48 | 49.95973 | 1.88132 | 38174 ft | 414 kts | 310° |
| 2026-04-30 14:48 | 49.99681 | 1.81227 | 37647 ft | 424 kts | 310° |
| 2026-04-30 14:49 | 50.01603 | 1.77653 | 36824 ft | 432 kts | 310° |
| 2026-04-30 14:49 | 50.03507 | 1.74100 | 36653 ft | 424 kts | 310° |
| 2026-04-30 14:49 | 50.05385 | 1.70588 | 36245 ft | 422 kts | 310° |
| 2026-04-30 14:49 | 50.07336 | 1.67170 | 35742 ft | 422 kts | 316° |
| 2026-04-30 14:50 | 50.11730 | 1.61097 | 34711 ft | 424 kts | 320° |
| 2026-04-30 14:50 | 50.13960 | 1.58071 | 34183 ft | 426 kts | 320° |
| 2026-04-30 14:51 | 50.18461 | 1.51955 | 32878 ft | 432 kts | 320° |
| 2026-04-30 14:51 | 50.20727 | 1.48872 | 32334 ft | 432 kts | 320° |
| 2026-04-30 14:51 | 50.25245 | 1.42716 | 31432 ft | 429 kts | 319° |
| 2026-04-30 14:52 | 50.27483 | 1.39650 | 31034 ft | 426 kts | 319° |
| 2026-04-30 14:52 | 50.31919 | 1.33550 | 30232 ft | 423 kts | 319° |
| 2026-04-30 14:52 | 50.34124 | 1.30519 | 29793 ft | 421 kts | 319° |
| 2026-04-30 14:53 | 50.38509 | 1.24488 | 28986 ft | 417 kts | 319° |
| 2026-04-30 14:53 | 50.40681 | 1.21495 | 28604 ft | 414 kts | 319° |
| 2026-04-30 14:54 | 50.44983 | 1.15564 | 27867 ft | 409 kts | 319° |
| 2026-04-30 14:54 | 50.49230 | 1.09696 | 27118 ft | 404 kts | 319° |
| 2026-04-30 14:55 | 50.53260 | 1.03618 | 26359 ft | 400 kts | 313° |
| 2026-04-30 14:55 | 50.55153 | 1.00434 | 25975 ft | 398 kts | 313° |
| 2026-04-30 14:55 | 50.58911 | 0.94105 | 25322 ft | 390 kts | 313° |
| 2026-04-30 14:56 | 50.62490 | 0.88062 | 25092 ft | 370 kts | 313° |
| 2026-04-30 14:56 | 50.65900 | 0.82259 | 24832 ft | 352 kts | 313° |
| 2026-04-30 14:57 | 50.67540 | 0.79458 | 24720 ft | 343 kts | 311° |
| 2026-04-30 14:57 | 50.70552 | 0.73800 | 24342 ft | 332 kts | 308° |
| 2026-04-30 14:58 | 50.73400 | 0.68104 | 23801 ft | 329 kts | 308° |
| 2026-04-30 14:58 | 50.74813 | 0.65280 | 23497 ft | 327 kts | 308° |
| 2026-04-30 14:58 | 50.77634 | 0.59699 | 22884 ft | 323 kts | 308° |
| 2026-04-30 14:59 | 50.80416 | 0.54211 | 22312 ft | 318 kts | 308° |
| 2026-04-30 15:00 | 50.84521 | 0.46118 | 21473 ft | 311 kts | 308° |
| 2026-04-30 15:00 | 50.87216 | 0.40792 | 20889 ft | 308 kts | 307° |
| 2026-04-30 15:01 | 50.89862 | 0.35537 | 20387 ft | 303 kts | 307° |
| 2026-04-30 15:01 | 50.91169 | 0.32934 | 20131 ft | 300 kts | 307° |
| 2026-04-30 15:01 | 50.93752 | 0.27792 | 19621 ft | 296 kts | 307° |
| 2026-04-30 15:02 | 50.95081 | 0.25306 | 19348 ft | 295 kts | 318° |
| 2026-04-30 15:02 | 50.96817 | 0.23632 | 19071 ft | 292 kts | 343° |
| 2026-04-30 15:03 | 51.02195 | 0.25846 | 18134 ft | 270 kts | 55° |
| 2026-04-30 15:03 | 51.03443 | 0.31118 | 17477 ft | 251 kts | 96° |
| 2026-04-30 15:04 | 51.02331 | 0.36140 | 16870 ft | 241 kts | 127° |
| 2026-04-30 15:04 | 50.99269 | 0.42334 | 16044 ft | 236 kts | 130° |
| 2026-04-30 15:05 | 50.95963 | 0.48009 | 15186 ft | 232 kts | 149° |
| 2026-04-30 15:06 | 50.92848 | 0.49151 | 14618 ft | 237 kts | 183° |
| 2026-04-30 15:06 | 50.89858 | 0.46928 | 14045 ft | 248 kts | 220° |
| 2026-04-30 15:07 | 50.88382 | 0.41951 | 13414 ft | 262 kts | 263° |
| 2026-04-30 15:07 | 50.89398 | 0.36447 | 12789 ft | 268 kts | 303° |
| 2026-04-30 15:08 | 50.91658 | 0.31741 | 12176 ft | 268 kts | 308° |
| 2026-04-30 15:08 | 50.95266 | 0.25044 | 11331 ft | 264 kts | 326° |
| 2026-04-30 15:09 | 50.98672 | 0.23947 | 11205 ft | 252 kts | 20° |
| 2026-04-30 15:09 | 51.01272 | 0.27133 | 11209 ft | 234 kts | 69° |
| 2026-04-30 15:10 | 51.01578 | 0.31978 | 11211 ft | 220 kts | 111° |
| 2026-04-30 15:11 | 50.98052 | 0.39705 | 11212 ft | 218 kts | 129° |
| 2026-04-30 15:11 | 50.96167 | 0.43454 | 11202 ft | 217 kts | 134° |
| 2026-04-30 15:12 | 50.91996 | 0.45462 | 11203 ft | 227 kts | 193° |
| 2026-04-30 15:13 | 50.89532 | 0.42252 | 11198 ft | 245 kts | 239° |
| 2026-04-30 15:14 | 50.91511 | 0.32108 | 11197 ft | 265 kts | 308° |
| 2026-04-30 15:14 | 50.95021 | 0.25381 | 11196 ft | 265 kts | 320° |
| 2026-04-30 15:16 | 51.01680 | 0.29196 | 11215 ft | 227 kts | 88° |
| 2026-04-30 15:17 | 50.99106 | 0.37596 | 11206 ft | 218 kts | 129° |
| 2026-04-30 15:18 | 50.93706 | 0.45585 | 11201 ft | 220 kts | 169° |
| 2026-04-30 15:19 | 50.89630 | 0.42457 | 11202 ft | 244 kts | 236° |